Terminal Aerodrome Forecast
Issued by NWS

Home | Current Version | Previous Version | Text Only | Print | Product List | Glossary On
Versions: 1 2 3 4 5 6 7 8 9 10 11 12 13 14 15 16 17 18 19 20 21 22 23 24 25 26 27 28 29 30 31 32 33 34 35 36 37
000
FTUS45 KCYS 251518 AAA
TAFAIA
TAF AMD
KAIA 251518Z 2515/2612 01018KT P6SM OVC060
     FM251600 02020KT 2SM -SN BR OVC025
     FM251800 36016G23KT 1 1/2SM -SN OVC008
     FM260400 36012KT 3SM -SN OVC010=

USA.gov is the U.S. government's official web portal to all federal, state and local government web resources and services.